Morrill, NE (69358)

7:52 AM MDT on September 19, 2014 (GMT -0600)
Warner Street | Change Station
CLOSE
Current Station
Personal Weather Station
Location: Mitchell, NE
Elevation: 4039 ft
Nearby Weather Stations

Elev 4039 ft 41.96 °N, 103.79 °W | Updated 5 seconds ago

Clear
Clear
58.0 °F
Feels Like 58.0 °F
N
3.0
Wind Variable Wind from West
Gusts 3.0 mph

Today
High -- | Low -- °F
--% Chance of Precip.
Yesterday
High -- | Low -- °F
Precip. -- in
6:40 AM 6:58 PM
Waning Crescent, 19% visible
Pressure 29.76 in
Visibility 10.0 miles
Clouds Clear
Dew Point 54 °F
Humidity 85%
Rainfall 0.00 in
Snow Depth Not available.
UV 0 out of 12
Pollen 6.20 out of 12
Air Quality Not available.
Flu Activity Not available.
METAR KTOR 191153Z AUTO 31005KT 10SM CLR 13/11 A2990 RMK AO2 SLP078 T01330111 10161 20122 53026

More Conditions Fewer Conditions

Pressure 29.76 in
Visibility 10.0 miles
Clouds Clear
Dew Point 54 °F
Humidity 85%
Rainfall 0.00 in
Snow Depth Not available.
UV 0 out of 12
Pollen 6.20 out of 12
Air Quality Not available.
Flu Activity Not available.
METAR KTOR 191153Z AUTO 31005KT 10SM CLR 13/11 A2990 RMK AO2 SLP078 T01330111 10161 20122 53026

More Conditions Fewer Conditions

10-Day Weather Forecast

Almanac

Astronomy

Sep. 19, 2014 Rise Set
Actual Time 6:40 AM MDT 6:58 PM MDT
Civil Twilight 6:12 AM MDT 7:25 PM MDT
Nautical Twilight 5:39 AM MDT 7:58 PM MDT
Astronomical Twilight 5:05 AM MDT 8:32 PM MDT
Moon 2:24 AM MDT 4:31 PM MDT
Length of Visible Light 13h 13m
Length of Day
12h 18m
Tomorrow will be 2m 47s shorter.
Waning Crescent, 19% of the Moon is Illuminated
Today
Waning Crescent
Sep 24
New
Oct 1
First Quarter
Oct 8
Full
Oct 15
Last Quarter

Today's Extremes

State Highs State Lows

Community

WunderPhotos

Upload Photos

1,754,608 photos uploaded!

WunderBlogs® & News

Nearby

Snow Depth

Station Depth Elevation
No new snow has been reported.

Earthquake Activity

City Distance Mag. Time & Date
No recent earthquake activity has been reported nearby.
Minimum magnitude displayed is 2.5.

Coastal Water Temperatures

Place Temperature
No Stations Reporting

Nearby Weather Stations